sensor_id;sensor_type;location;lat;lon;timestamp;P1;durP1;ratioP1;P2;durP2;ratioP2
51048;SDS011;37084;55.228;36.450;2022-12-13T00:00:48;2.67;;;1.50;;
51048;SDS011;37084;55.228;36.450;2022-12-13T00:03:56;2.50;;;1.60;;
51048;SDS011;37084;55.228;36.450;2022-12-13T00:06:59;2.60;;;1.30;;
51048;SDS011;37084;55.228;36.450;2022-12-13T00:10:00;2.83;;;1.48;;
51048;SDS011;37084;55.228;36.450;2022-12-13T00:13:04;2.25;;;1.42;;
51048;SDS011;37084;55.228;36.450;2022-12-13T00:16:06;2.15;;;1.73;;
51048;SDS011;37084;55.228;36.450;2022-12-13T00:19:08;1.90;;;1.45;;
51048;SDS011;37084;55.228;36.450;2022-12-13T00:22:09;2.15;;;1.60;;
51048;SDS011;37084;55.228;36.450;2022-12-13T00:25:10;2.53;;;1.23;;
51048;SDS011;37084;55.228;36.450;2022-12-13T00:28:13;2.58;;;1.05;;
51048;SDS011;37084;55.228;36.450;2022-12-13T00:31:15;2.25;;;1.42;;
51048;SDS011;37084;55.228;36.450;2022-12-13T00:34:17;1.33;;;1.23;;
51048;SDS011;37084;55.228;36.450;2022-12-13T00:37:18;2.20;;;1.40;;
51048;SDS011;37084;55.228;36.450;2022-12-13T00:40:19;2.97;;;1.42;;
51048;SDS011;37084;55.228;36.450;2022-12-13T00:43:21;1.52;;;1.42;;
51048;SDS011;37084;55.228;36.450;2022-12-13T00:46:22;1.20;;;1.08;;
51048;SDS011;37084;55.228;36.450;2022-12-13T00:49:24;2.08;;;1.30;;
51048;SDS011;37084;55.228;36.450;2022-12-13T00:52:26;1.42;;;1.30;;
51048;SDS011;37084;55.228;36.450;2022-12-13T00:55:27;2.42;;;1.30;;
51048;SDS011;37084;55.228;36.450;2022-12-13T00:58:29;1.98;;;1.83;;
51048;SDS011;37084;55.228;36.450;2022-12-13T01:01:31;1.77;;;1.00;;
51048;SDS011;37084;55.228;36.450;2022-12-13T01:04:33;2.85;;;1.40;;
51048;SDS011;37084;55.228;36.450;2022-12-13T01:07:35;2.97;;;1.88;;
51048;SDS011;37084;55.228;36.450;2022-12-13T01:10:40;2.85;;;1.70;;
51048;SDS011;37084;55.228;36.450;2022-12-13T01:13:42;2.92;;;1.63;;
51048;SDS011;37084;55.228;36.450;2022-12-13T01:16:44;2.83;;;1.58;;
51048;SDS011;37084;55.228;36.450;2022-12-13T01:19:45;3.72;;;2.00;;
51048;SDS011;37084;55.228;36.450;2022-12-13T01:22:46;4.13;;;1.73;;
51048;SDS011;37084;55.228;36.450;2022-12-13T01:25:48;3.15;;;1.40;;
51048;SDS011;37084;55.228;36.450;2022-12-13T01:28:49;3.38;;;2.08;;
51048;SDS011;37084;55.228;36.450;2022-12-13T01:31:50;2.95;;;2.08;;
51048;SDS011;37084;55.228;36.450;2022-12-13T01:34:52;3.55;;;2.03;;
51048;SDS011;37084;55.228;36.450;2022-12-13T01:37:53;3.58;;;1.95;;
51048;SDS011;37084;55.228;36.450;2022-12-13T01:40:55;3.67;;;1.48;;
51048;SDS011;37084;55.228;36.450;2022-12-13T01:44:00;3.78;;;1.88;;
51048;SDS011;37084;55.228;36.450;2022-12-13T01:47:03;3.88;;;1.70;;
51048;SDS011;37084;55.228;36.450;2022-12-13T01:50:06;4.00;;;2.15;;
51048;SDS011;37084;55.228;36.450;2022-12-13T01:53:29;5.82;;;1.80;;
51048;SDS011;37084;55.228;36.450;2022-12-13T01:56:35;4.50;;;1.75;;
51048;SDS011;37084;55.228;36.450;2022-12-13T01:59:44;5.85;;;2.33;;
51048;SDS011;37084;55.228;36.450;2022-12-13T02:02:45;5.20;;;1.95;;
51048;SDS011;37084;55.228;36.450;2022-12-13T02:06:02;4.13;;;2.38;;
51048;SDS011;37084;55.228;36.450;2022-12-13T02:09:06;2.60;;;1.80;;
51048;SDS011;37084;55.228;36.450;2022-12-13T02:12:08;2.92;;;1.35;;
51048;SDS011;37084;55.228;36.450;2022-12-13T02:15:15;1.55;;;1.45;;
51048;SDS011;37084;55.228;36.450;2022-12-13T02:18:24;1.80;;;1.20;;
51048;SDS011;37084;55.228;36.450;2022-12-13T02:21:33;1.58;;;1.33;;
51048;SDS011;37084;55.228;36.450;2022-12-13T02:25:17;1.52;;;1.40;;
51048;SDS011;37084;55.228;36.450;2022-12-13T02:35:20;1.45;;;1.00;;
51048;SDS011;37084;55.228;36.450;2022-12-13T02:38:28;0.73;;;0.63;;
51048;SDS011;37084;55.228;36.450;2022-12-13T02:41:40;1.73;;;1.13;;
51048;SDS011;37084;55.228;36.450;2022-12-13T02:45:02;1.08;;;0.98;;
51048;SDS011;37084;55.228;36.450;2022-12-13T02:48:08;1.02;;;0.93;;
51048;SDS011;37084;55.228;36.450;2022-12-13T02:51:12;1.23;;;1.13;;
51048;SDS011;37084;55.228;36.450;2022-12-13T02:54:15;1.05;;;1.05;;
51048;SDS011;37084;55.228;36.450;2022-12-13T03:00:37;1.73;;;1.17;;
51048;SDS011;37084;55.228;36.450;2022-12-13T03:07:18;1.05;;;1.05;;
51048;SDS011;37084;55.228;36.450;2022-12-13T03:10:32;1.25;;;0.85;;
51048;SDS011;37084;55.228;36.450;2022-12-13T03:13:47;0.90;;;0.90;;
51048;SDS011;37084;55.228;36.450;2022-12-13T03:16:53;1.08;;;1.00;;
51048;SDS011;37084;55.228;36.450;2022-12-13T03:19:55;1.20;;;0.98;;
51048;SDS011;37084;55.228;36.450;2022-12-13T03:22:56;1.35;;;1.13;;
51048;SDS011;37084;55.228;36.450;2022-12-13T03:26:00;1.67;;;1.25;;
51048;SDS011;37084;55.228;36.450;2022-12-13T03:29:03;1.52;;;1.40;;
51048;SDS011;37084;55.228;36.450;2022-12-13T03:32:05;1.10;;;1.00;;
51048;SDS011;37084;55.228;36.450;2022-12-13T03:35:06;2.47;;;1.40;;
51048;SDS011;37084;55.228;36.450;2022-12-13T03:38:08;1.15;;;0.90;;
51048;SDS011;37084;55.228;36.450;2022-12-13T03:41:10;1.83;;;1.20;;
51048;SDS011;37084;55.228;36.450;2022-12-13T03:44:13;1.10;;;1.00;;
51048;SDS011;37084;55.228;36.450;2022-12-13T03:47:14;1.50;;;1.20;;
51048;SDS011;37084;55.228;36.450;2022-12-13T03:50:20;1.25;;;1.15;;
51048;SDS011;37084;55.228;36.450;2022-12-13T03:53:21;1.40;;;0.85;;
51048;SDS011;37084;55.228;36.450;2022-12-13T03:56:23;1.50;;;0.93;;
51048;SDS011;37084;55.228;36.450;2022-12-13T03:59:25;1.63;;;1.10;;
51048;SDS011;37084;55.228;36.450;2022-12-13T04:02:27;1.23;;;1.00;;
51048;SDS011;37084;55.228;36.450;2022-12-13T04:05:28;1.05;;;0.90;;
51048;SDS011;37084;55.228;36.450;2022-12-13T04:08:30;0.93;;;0.90;;
51048;SDS011;37084;55.228;36.450;2022-12-13T04:11:31;1.17;;;1.05;;
51048;SDS011;37084;55.228;36.450;2022-12-13T04:14:51;2.03;;;1.08;;
51048;SDS011;37084;55.228;36.450;2022-12-13T04:17:52;1.55;;;1.30;;
51048;SDS011;37084;55.228;36.450;2022-12-13T04:20:53;1.88;;;1.05;;
51048;SDS011;37084;55.228;36.450;2022-12-13T04:23:54;1.52;;;1.35;;
51048;SDS011;37084;55.228;36.450;2022-12-13T04:26:56;1.75;;;1.38;;
51048;SDS011;37084;55.228;36.450;2022-12-13T04:29:57;1.30;;;1.00;;
51048;SDS011;37084;55.228;36.450;2022-12-13T04:32:58;1.25;;;0.98;;
51048;SDS011;37084;55.228;36.450;2022-12-13T04:35:59;1.88;;;1.38;;
51048;SDS011;37084;55.228;36.450;2022-12-13T04:39:02;1.13;;;0.88;;
51048;SDS011;37084;55.228;36.450;2022-12-13T04:42:04;1.42;;;1.27;;
51048;SDS011;37084;55.228;36.450;2022-12-13T04:45:05;1.27;;;1.17;;
51048;SDS011;37084;55.228;36.450;2022-12-13T04:48:07;2.88;;;1.60;;
51048;SDS011;37084;55.228;36.450;2022-12-13T04:51:08;2.10;;;1.73;;
51048;SDS011;37084;55.228;36.450;2022-12-13T04:54:09;1.70;;;1.35;;
51048;SDS011;37084;55.228;36.450;2022-12-13T04:57:11;2.67;;;1.50;;
51048;SDS011;37084;55.228;36.450;2022-12-13T05:00:12;2.13;;;1.90;;
51048;SDS011;37084;55.228;36.450;2022-12-13T05:03:14;1.77;;;1.48;;
51048;SDS011;37084;55.228;36.450;2022-12-13T05:06:15;3.30;;;1.63;;
51048;SDS011;37084;55.228;36.450;2022-12-13T05:09:16;3.17;;;1.70;;
51048;SDS011;37084;55.228;36.450;2022-12-13T05:12:18;2.03;;;1.23;;
51048;SDS011;37084;55.228;36.450;2022-12-13T05:15:19;2.60;;;1.80;;
51048;SDS011;37084;55.228;36.450;2022-12-13T05:18:20;3.00;;;1.60;;
51048;SDS011;37084;55.228;36.450;2022-12-13T05:21:22;3.25;;;2.08;;
51048;SDS011;37084;55.228;36.450;2022-12-13T05:24:23;3.60;;;1.77;;
51048;SDS011;37084;55.228;36.450;2022-12-13T05:27:25;3.13;;;1.70;;
51048;SDS011;37084;55.228;36.450;2022-12-13T05:30:28;2.55;;;1.67;;
51048;SDS011;37084;55.228;36.450;2022-12-13T05:33:29;3.88;;;2.13;;
51048;SDS011;37084;55.228;36.450;2022-12-13T05:36:31;3.72;;;2.05;;
51048;SDS011;37084;55.228;36.450;2022-12-13T05:39:32;3.33;;;2.08;;
51048;SDS011;37084;55.228;36.450;2022-12-13T05:42:33;4.95;;;2.05;;
51048;SDS011;37084;55.228;36.450;2022-12-13T05:45:34;3.30;;;1.65;;
51048;SDS011;37084;55.228;36.450;2022-12-13T05:48:35;4.32;;;2.00;;
51048;SDS011;37084;55.228;36.450;2022-12-13T05:51:37;3.90;;;1.90;;
51048;SDS011;37084;55.228;36.450;2022-12-13T05:54:38;4.40;;;2.33;;
51048;SDS011;37084;55.228;36.450;2022-12-13T05:57:39;5.68;;;2.58;;
51048;SDS011;37084;55.228;36.450;2022-12-13T06:00:41;4.10;;;2.70;;
51048;SDS011;37084;55.228;36.450;2022-12-13T06:03:44;3.92;;;2.00;;
51048;SDS011;37084;55.228;36.450;2022-12-13T06:06:46;4.75;;;2.58;;
51048;SDS011;37084;55.228;36.450;2022-12-13T06:09:48;5.70;;;2.40;;
51048;SDS011;37084;55.228;36.450;2022-12-13T06:12:49;4.72;;;2.03;;
51048;SDS011;37084;55.228;36.450;2022-12-13T06:15:50;4.68;;;2.55;;
51048;SDS011;37084;55.228;36.450;2022-12-13T06:18:51;6.32;;;2.45;;
51048;SDS011;37084;55.228;36.450;2022-12-13T06:21:53;4.15;;;2.35;;
51048;SDS011;37084;55.228;36.450;2022-12-13T06:24:54;4.57;;;2.53;;
51048;SDS011;37084;55.228;36.450;2022-12-13T06:27:56;4.75;;;2.40;;
51048;SDS011;37084;55.228;36.450;2022-12-13T06:31:01;6.90;;;2.53;;
51048;SDS011;37084;55.228;36.450;2022-12-13T06:34:04;4.45;;;2.70;;
51048;SDS011;37084;55.228;36.450;2022-12-13T06:37:07;2.92;;;2.03;;
51048;SDS011;37084;55.228;36.450;2022-12-13T06:40:10;5.80;;;2.55;;
51048;SDS011;37084;55.228;36.450;2022-12-13T06:43:11;3.30;;;2.35;;
51048;SDS011;37084;55.228;36.450;2022-12-13T06:46:13;4.53;;;2.33;;
51048;SDS011;37084;55.228;36.450;2022-12-13T06:49:15;6.38;;;3.17;;
51048;SDS011;37084;55.228;36.450;2022-12-13T06:52:16;3.83;;;2.47;;
51048;SDS011;37084;55.228;36.450;2022-12-13T06:55:17;5.10;;;3.08;;
51048;SDS011;37084;55.228;36.450;2022-12-13T06:58:19;7.95;;;3.20;;
51048;SDS011;37084;55.228;36.450;2022-12-13T07:01:20;9.07;;;3.75;;
51048;SDS011;37084;55.228;36.450;2022-12-13T07:04:22;6.55;;;3.22;;
51048;SDS011;37084;55.228;36.450;2022-12-13T07:07:23;6.30;;;3.95;;
51048;SDS011;37084;55.228;36.450;2022-12-13T07:10:25;7.47;;;3.20;;
51048;SDS011;37084;55.228;36.450;2022-12-13T07:13:27;7.75;;;3.67;;
51048;SDS011;37084;55.228;36.450;2022-12-13T07:16:28;5.32;;;2.78;;
51048;SDS011;37084;55.228;36.450;2022-12-13T07:19:29;9.65;;;3.53;;
51048;SDS011;37084;55.228;36.450;2022-12-13T07:22:31;8.63;;;4.00;;
51048;SDS011;37084;55.228;36.450;2022-12-13T07:25:32;7.57;;;4.15;;
51048;SDS011;37084;55.228;36.450;2022-12-13T07:28:34;6.22;;;3.33;;
51048;SDS011;37084;55.228;36.450;2022-12-13T07:31:36;7.13;;;4.00;;
51048;SDS011;37084;55.228;36.450;2022-12-13T07:34:38;6.95;;;3.15;;
51048;SDS011;37084;55.228;36.450;2022-12-13T07:37:39;6.32;;;3.30;;
51048;SDS011;37084;55.228;36.450;2022-12-13T07:40:40;11.05;;;3.97;;
51048;SDS011;37084;55.228;36.450;2022-12-13T07:43:41;10.75;;;3.25;;
51048;SDS011;37084;55.228;36.450;2022-12-13T07:46:42;8.55;;;4.00;;
51048;SDS011;37084;55.228;36.450;2022-12-13T07:49:44;9.32;;;4.15;;
51048;SDS011;37084;55.228;36.450;2022-12-13T07:52:46;6.03;;;3.67;;
51048;SDS011;37084;55.228;36.450;2022-12-13T07:55:48;11.75;;;4.38;;
51048;SDS011;37084;55.228;36.450;2022-12-13T07:58:49;8.55;;;4.63;;
51048;SDS011;37084;55.228;36.450;2022-12-13T08:01:51;8.20;;;4.43;;
51048;SDS011;37084;55.228;36.450;2022-12-13T08:04:52;6.18;;;3.13;;
51048;SDS011;37084;55.228;36.450;2022-12-13T08:07:53;6.70;;;3.45;;
51048;SDS011;37084;55.228;36.450;2022-12-13T08:10:54;7.70;;;3.55;;
51048;SDS011;37084;55.228;36.450;2022-12-13T08:14:00;5.97;;;3.03;;
51048;SDS011;37084;55.228;36.450;2022-12-13T08:17:03;5.38;;;2.58;;
51048;SDS011;37084;55.228;36.450;2022-12-13T08:20:07;5.65;;;3.55;;
51048;SDS011;37084;55.228;36.450;2022-12-13T08:23:09;4.65;;;3.17;;
51048;SDS011;37084;55.228;36.450;2022-12-13T08:26:10;6.22;;;3.58;;
51048;SDS011;37084;55.228;36.450;2022-12-13T08:29:12;9.20;;;4.22;;
51048;SDS011;37084;55.228;36.450;2022-12-13T08:32:14;6.82;;;3.70;;
51048;SDS011;37084;55.228;36.450;2022-12-13T08:35:15;9.48;;;3.80;;
51048;SDS011;37084;55.228;36.450;2022-12-13T08:38:17;5.32;;;2.45;;
51048;SDS011;37084;55.228;36.450;2022-12-13T08:41:18;11.88;;;4.63;;
51048;SDS011;37084;55.228;36.450;2022-12-13T08:44:20;10.98;;;4.97;;
51048;SDS011;37084;55.228;36.450;2022-12-13T08:47:22;8.75;;;4.20;;
51048;SDS011;37084;55.228;36.450;2022-12-13T08:50:24;10.57;;;4.53;;
51048;SDS011;37084;55.228;36.450;2022-12-13T08:53:26;8.98;;;4.05;;
51048;SDS011;37084;55.228;36.450;2022-12-13T08:56:27;6.65;;;4.05;;
51048;SDS011;37084;55.228;36.450;2022-12-13T08:59:28;5.07;;;2.95;;
51048;SDS011;37084;55.228;36.450;2022-12-13T09:02:29;7.40;;;4.18;;
51048;SDS011;37084;55.228;36.450;2022-12-13T09:05:31;6.97;;;4.10;;
51048;SDS011;37084;55.228;36.450;2022-12-13T09:08:33;7.72;;;3.88;;
51048;SDS011;37084;55.228;36.450;2022-12-13T09:11:34;6.47;;;3.85;;
51048;SDS011;37084;55.228;36.450;2022-12-13T09:14:35;8.90;;;4.65;;
51048;SDS011;37084;55.228;36.450;2022-12-13T09:17:36;10.73;;;5.03;;
51048;SDS011;37084;55.228;36.450;2022-12-13T09:20:38;7.20;;;4.32;;
51048;SDS011;37084;55.228;36.450;2022-12-13T09:23:41;8.40;;;4.40;;
51048;SDS011;37084;55.228;36.450;2022-12-13T09:26:42;9.52;;;5.30;;
51048;SDS011;37084;55.228;36.450;2022-12-13T09:29:43;8.18;;;4.80;;
51048;SDS011;37084;55.228;36.450;2022-12-13T09:32:48;6.75;;;4.07;;
51048;SDS011;37084;55.228;36.450;2022-12-13T09:35:50;10.23;;;4.70;;
51048;SDS011;37084;55.228;36.450;2022-12-13T09:38:53;10.52;;;4.85;;
51048;SDS011;37084;55.228;36.450;2022-12-13T09:41:56;9.95;;;4.80;;
51048;SDS011;37084;55.228;36.450;2022-12-13T09:44:58;9.10;;;4.90;;
51048;SDS011;37084;55.228;36.450;2022-12-13T09:48:01;11.25;;;5.60;;
51048;SDS011;37084;55.228;36.450;2022-12-13T09:51:02;9.43;;;4.93;;
51048;SDS011;37084;55.228;36.450;2022-12-13T09:54:06;8.38;;;5.13;;
51048;SDS011;37084;55.228;36.450;2022-12-13T09:57:08;7.28;;;4.00;;
51048;SDS011;37084;55.228;36.450;2022-12-13T10:00:17;6.85;;;3.33;;
51048;SDS011;37084;55.228;36.450;2022-12-13T10:03:20;11.05;;;5.45;;
51048;SDS011;37084;55.228;36.450;2022-12-13T10:06:23;6.43;;;3.17;;
51048;SDS011;37084;55.228;36.450;2022-12-13T10:09:28;9.52;;;4.93;;
51048;SDS011;37084;55.228;36.450;2022-12-13T10:12:29;10.98;;;5.13;;
51048;SDS011;37084;55.228;36.450;2022-12-13T10:15:33;11.20;;;6.28;;
51048;SDS011;37084;55.228;36.450;2022-12-13T10:18:38;9.52;;;5.05;;
51048;SDS011;37084;55.228;36.450;2022-12-13T10:21:41;11.32;;;6.30;;
51048;SDS011;37084;55.228;36.450;2022-12-13T10:27:52;10.40;;;5.40;;
51048;SDS011;37084;55.228;36.450;2022-12-13T10:30:54;7.95;;;4.03;;
51048;SDS011;37084;55.228;36.450;2022-12-13T10:33:56;10.05;;;5.65;;
51048;SDS011;37084;55.228;36.450;2022-12-13T10:36:58;10.52;;;5.22;;
51048;SDS011;37084;55.228;36.450;2022-12-13T10:39:59;9.07;;;5.07;;
51048;SDS011;37084;55.228;36.450;2022-12-13T10:43:21;7.50;;;4.80;;
51048;SDS011;37084;55.228;36.450;2022-12-13T10:46:22;12.57;;;5.15;;
51048;SDS011;37084;55.228;36.450;2022-12-13T10:49:25;6.57;;;4.13;;
51048;SDS011;37084;55.228;36.450;2022-12-13T10:52:33;9.93;;;5.35;;
51048;SDS011;37084;55.228;36.450;2022-12-13T10:55:37;11.38;;;6.13;;
51048;SDS011;37084;55.228;36.450;2022-12-13T10:58:40;11.65;;;5.63;;
51048;SDS011;37084;55.228;36.450;2022-12-13T11:01:43;12.07;;;4.78;;
51048;SDS011;37084;55.228;36.450;2022-12-13T11:04:44;8.98;;;4.53;;
51048;SDS011;37084;55.228;36.450;2022-12-13T11:07:45;12.90;;;5.50;;
51048;SDS011;37084;55.228;36.450;2022-12-13T11:10:56;11.68;;;5.15;;
51048;SDS011;37084;55.228;36.450;2022-12-13T11:13:59;11.32;;;4.43;;
51048;SDS011;37084;55.228;36.450;2022-12-13T11:17:07;14.20;;;7.25;;
51048;SDS011;37084;55.228;36.450;2022-12-13T11:20:19;13.68;;;5.53;;
51048;SDS011;37084;55.228;36.450;2022-12-13T11:23:30;12.27;;;5.50;;
51048;SDS011;37084;55.228;36.450;2022-12-13T11:26:34;11.20;;;4.82;;
51048;SDS011;37084;55.228;36.450;2022-12-13T11:33:17;10.07;;;6.25;;
51048;SDS011;37084;55.228;36.450;2022-12-13T11:39:52;10.02;;;4.53;;
51048;SDS011;37084;55.228;36.450;2022-12-13T11:43:11;10.98;;;4.80;;
51048;SDS011;37084;55.228;36.450;2022-12-13T11:46:53;11.77;;;6.28;;
51048;SDS011;37084;55.228;36.450;2022-12-13T11:49:55;14.05;;;5.22;;
51048;SDS011;37084;55.228;36.450;2022-12-13T11:52:58;12.60;;;5.47;;
51048;SDS011;37084;55.228;36.450;2022-12-13T11:56:26;8.50;;;4.60;;
51048;SDS011;37084;55.228;36.450;2022-12-13T12:03:20;9.05;;;4.43;;
51048;SDS011;37084;55.228;36.450;2022-12-13T12:06:37;8.25;;;3.88;;
51048;SDS011;37084;55.228;36.450;2022-12-13T12:13:30;13.18;;;5.50;;
51048;SDS011;37084;55.228;36.450;2022-12-13T12:16:41;9.70;;;4.65;;
51048;SDS011;37084;55.228;36.450;2022-12-13T12:19:54;9.23;;;4.55;;
51048;SDS011;37084;55.228;36.450;2022-12-13T12:23:00;11.55;;;5.30;;
51048;SDS011;37084;55.228;36.450;2022-12-13T12:26:15;12.82;;;4.93;;
51048;SDS011;37084;55.228;36.450;2022-12-13T12:36:29;12.63;;;5.20;;
51048;SDS011;37084;55.228;36.450;2022-12-13T12:43:01;11.88;;;5.13;;
51048;SDS011;37084;55.228;36.450;2022-12-13T13:00:03;11.63;;;4.85;;
51048;SDS011;37084;55.228;36.450;2022-12-13T13:03:17;12.32;;;5.93;;
51048;SDS011;37084;55.228;36.450;2022-12-13T13:06:32;14.73;;;7.22;;
51048;SDS011;37084;55.228;36.450;2022-12-13T13:09:36;12.20;;;6.00;;
51048;SDS011;37084;55.228;36.450;2022-12-13T13:12:38;14.88;;;6.57;;
51048;SDS011;37084;55.228;36.450;2022-12-13T13:24:57;13.70;;;6.82;;
51048;SDS011;37084;55.228;36.450;2022-12-13T13:28:18;15.02;;;7.18;;
51048;SDS011;37084;55.228;36.450;2022-12-13T13:31:21;12.48;;;4.65;;
51048;SDS011;37084;55.228;36.450;2022-12-13T13:34:24;13.85;;;5.78;;
51048;SDS011;37084;55.228;36.450;2022-12-13T13:37:46;17.42;;;7.68;;
51048;SDS011;37084;55.228;36.450;2022-12-13T13:40:48;14.23;;;5.63;;
51048;SDS011;37084;55.228;36.450;2022-12-13T13:43:51;12.95;;;6.10;;
51048;SDS011;37084;55.228;36.450;2022-12-13T13:47:13;15.27;;;6.93;;
51048;SDS011;37084;55.228;36.450;2022-12-13T13:53:33;14.65;;;6.63;;
51048;SDS011;37084;55.228;36.450;2022-12-13T14:00:10;18.33;;;7.22;;
51048;SDS011;37084;55.228;36.450;2022-12-13T14:23:37;17.50;;;6.95;;
51048;SDS011;37084;55.228;36.450;2022-12-13T14:26:52;15.10;;;6.65;;
51048;SDS011;37084;55.228;36.450;2022-12-13T14:29:55;15.40;;;6.82;;
51048;SDS011;37084;55.228;36.450;2022-12-13T14:32:57;18.13;;;7.72;;
51048;SDS011;37084;55.228;36.450;2022-12-13T14:35:59;20.50;;;7.63;;
51048;SDS011;37084;55.228;36.450;2022-12-13T14:39:02;18.70;;;6.80;;
51048;SDS011;37084;55.228;36.450;2022-12-13T14:42:25;17.80;;;7.07;;
51048;SDS011;37084;55.228;36.450;2022-12-13T14:45:31;19.40;;;7.50;;
51048;SDS011;37084;55.228;36.450;2022-12-13T14:48:42;21.23;;;8.05;;
51048;SDS011;37084;55.228;36.450;2022-12-13T14:51:55;17.52;;;7.80;;
51048;SDS011;37084;55.228;36.450;2022-12-13T14:55:01;18.50;;;8.63;;
51048;SDS011;37084;55.228;36.450;2022-12-13T14:58:16;18.83;;;7.80;;
51048;SDS011;37084;55.228;36.450;2022-12-13T15:01:35;18.60;;;8.40;;
51048;SDS011;37084;55.228;36.450;2022-12-13T15:04:37;17.08;;;8.52;;
51048;SDS011;37084;55.228;36.450;2022-12-13T15:07:39;16.98;;;7.25;;
51048;SDS011;37084;55.228;36.450;2022-12-13T15:10:45;18.17;;;7.68;;
51048;SDS011;37084;55.228;36.450;2022-12-13T15:13:51;15.93;;;6.55;;
51048;SDS011;37084;55.228;36.450;2022-12-13T15:16:53;17.90;;;8.15;;
51048;SDS011;37084;55.228;36.450;2022-12-13T15:19:58;17.70;;;7.13;;
51048;SDS011;37084;55.228;36.450;2022-12-13T15:26:31;22.83;;;9.60;;
51048;SDS011;37084;55.228;36.450;2022-12-13T15:29:33;20.33;;;8.10;;
51048;SDS011;37084;55.228;36.450;2022-12-13T15:32:35;18.77;;;8.35;;
51048;SDS011;37084;55.228;36.450;2022-12-13T15:35:37;16.98;;;6.85;;
51048;SDS011;37084;55.228;36.450;2022-12-13T15:39:00;16.52;;;7.45;;
51048;SDS011;37084;55.228;36.450;2022-12-13T15:42:01;17.90;;;7.20;;
51048;SDS011;37084;55.228;36.450;2022-12-13T15:45:03;15.02;;;7.43;;
51048;SDS011;37084;55.228;36.450;2022-12-13T15:48:12;16.02;;;7.47;;
51048;SDS011;37084;55.228;36.450;2022-12-13T15:51:54;15.80;;;6.90;;
51048;SDS011;37084;55.228;36.450;2022-12-13T15:54:58;17.27;;;7.30;;
51048;SDS011;37084;55.228;36.450;2022-12-13T15:58:01;18.10;;;7.75;;
51048;SDS011;37084;55.228;36.450;2022-12-13T16:01:03;16.98;;;8.02;;
51048;SDS011;37084;55.228;36.450;2022-12-13T16:04:04;16.98;;;6.90;;
51048;SDS011;37084;55.228;36.450;2022-12-13T16:07:52;16.38;;;6.25;;
51048;SDS011;37084;55.228;36.450;2022-12-13T16:10:37;16.30;;;6.57;;
51048;SDS011;37084;55.228;36.450;2022-12-13T16:13:39;17.55;;;7.03;;
51048;SDS011;37084;55.228;36.450;2022-12-13T16:16:40;16.02;;;7.38;;
51048;SDS011;37084;55.228;36.450;2022-12-13T16:19:41;17.65;;;6.53;;
51048;SDS011;37084;55.228;36.450;2022-12-13T16:22:43;16.88;;;7.35;;
51048;SDS011;37084;55.228;36.450;2022-12-13T16:25:45;17.15;;;7.82;;
51048;SDS011;37084;55.228;36.450;2022-12-13T16:28:46;16.20;;;7.57;;
51048;SDS011;37084;55.228;36.450;2022-12-13T16:31:47;15.75;;;6.93;;
51048;SDS011;37084;55.228;36.450;2022-12-13T16:34:49;19.02;;;7.28;;
51048;SDS011;37084;55.228;36.450;2022-12-13T16:37:51;16.27;;;7.07;;
51048;SDS011;37084;55.228;36.450;2022-12-13T16:40:53;17.58;;;6.78;;
51048;SDS011;37084;55.228;36.450;2022-12-13T16:43:56;18.15;;;6.97;;
51048;SDS011;37084;55.228;36.450;2022-12-13T16:47:00;19.27;;;7.13;;
51048;SDS011;37084;55.228;36.450;2022-12-13T16:50:02;14.38;;;6.88;;
51048;SDS011;37084;55.228;36.450;2022-12-13T16:53:10;17.15;;;8.20;;
51048;SDS011;37084;55.228;36.450;2022-12-13T16:56:12;18.17;;;8.10;;
51048;SDS011;37084;55.228;36.450;2022-12-13T16:59:17;19.20;;;8.15;;
51048;SDS011;37084;55.228;36.450;2022-12-13T17:02:19;20.02;;;8.43;;
51048;SDS011;37084;55.228;36.450;2022-12-13T17:05:21;16.88;;;7.93;;
51048;SDS011;37084;55.228;36.450;2022-12-13T17:08:23;18.63;;;7.63;;
51048;SDS011;37084;55.228;36.450;2022-12-13T17:11:24;17.40;;;7.70;;
51048;SDS011;37084;55.228;36.450;2022-12-13T17:14:25;19.15;;;8.20;;
51048;SDS011;37084;55.228;36.450;2022-12-13T17:17:26;17.95;;;7.00;;
51048;SDS011;37084;55.228;36.450;2022-12-13T17:20:27;18.90;;;7.50;;
51048;SDS011;37084;55.228;36.450;2022-12-13T17:23:29;18.60;;;7.25;;
51048;SDS011;37084;55.228;36.450;2022-12-13T17:26:31;23.38;;;9.20;;
51048;SDS011;37084;55.228;36.450;2022-12-13T17:29:32;18.02;;;7.75;;
51048;SDS011;37084;55.228;36.450;2022-12-13T17:32:34;16.65;;;7.55;;
51048;SDS011;37084;55.228;36.450;2022-12-13T17:35:37;18.33;;;8.00;;
51048;SDS011;37084;55.228;36.450;2022-12-13T17:38:43;18.83;;;8.18;;
51048;SDS011;37084;55.228;36.450;2022-12-13T17:41:45;20.88;;;9.60;;
51048;SDS011;37084;55.228;36.450;2022-12-13T17:44:46;19.65;;;7.75;;
51048;SDS011;37084;55.228;36.450;2022-12-13T17:47:47;17.17;;;7.97;;
51048;SDS011;37084;55.228;36.450;2022-12-13T17:50:50;19.50;;;7.88;;
51048;SDS011;37084;55.228;36.450;2022-12-13T17:53:53;21.08;;;8.18;;
51048;SDS011;37084;55.228;36.450;2022-12-13T17:56:54;24.25;;;8.88;;
51048;SDS011;37084;55.228;36.450;2022-12-13T17:59:55;22.30;;;9.52;;
51048;SDS011;37084;55.228;36.450;2022-12-13T18:02:57;23.08;;;9.93;;
51048;SDS011;37084;55.228;36.450;2022-12-13T18:05:58;23.48;;;9.07;;
51048;SDS011;37084;55.228;36.450;2022-12-13T18:08:59;24.13;;;8.55;;
51048;SDS011;37084;55.228;36.450;2022-12-13T18:12:00;32.17;;;10.77;;
51048;SDS011;37084;55.228;36.450;2022-12-13T18:15:02;21.98;;;9.52;;
51048;SDS011;37084;55.228;36.450;2022-12-13T18:18:04;22.27;;;9.50;;
51048;SDS011;37084;55.228;36.450;2022-12-13T18:21:06;18.52;;;8.45;;
51048;SDS011;37084;55.228;36.450;2022-12-13T18:24:09;14.82;;;6.50;;
51048;SDS011;37084;55.228;36.450;2022-12-13T18:27:11;18.08;;;6.82;;
51048;SDS011;37084;55.228;36.450;2022-12-13T18:30:12;15.73;;;7.75;;
51048;SDS011;37084;55.228;36.450;2022-12-13T18:33:13;18.17;;;7.30;;
51048;SDS011;37084;55.228;36.450;2022-12-13T18:36:15;16.83;;;7.40;;
51048;SDS011;37084;55.228;36.450;2022-12-13T18:39:16;20.13;;;7.47;;
51048;SDS011;37084;55.228;36.450;2022-12-13T18:42:17;18.67;;;8.15;;
51048;SDS011;37084;55.228;36.450;2022-12-13T18:45:19;18.30;;;7.78;;
51048;SDS011;37084;55.228;36.450;2022-12-13T18:48:21;20.17;;;7.28;;
51048;SDS011;37084;55.228;36.450;2022-12-13T18:51:22;21.55;;;7.53;;
51048;SDS011;37084;55.228;36.450;2022-12-13T18:54:23;18.30;;;7.82;;
51048;SDS011;37084;55.228;36.450;2022-12-13T18:57:25;14.35;;;5.93;;
51048;SDS011;37084;55.228;36.450;2022-12-13T19:00:26;13.10;;;5.63;;
51048;SDS011;37084;55.228;36.450;2022-12-13T19:03:27;13.38;;;5.55;;
51048;SDS011;37084;55.228;36.450;2022-12-13T19:06:29;15.25;;;5.93;;
51048;SDS011;37084;55.228;36.450;2022-12-13T19:09:30;16.15;;;6.32;;
51048;SDS011;37084;55.228;36.450;2022-12-13T19:12:31;13.75;;;6.07;;
51048;SDS011;37084;55.228;36.450;2022-12-13T19:15:36;19.17;;;6.47;;
51048;SDS011;37084;55.228;36.450;2022-12-13T19:18:39;16.75;;;6.30;;
51048;SDS011;37084;55.228;36.450;2022-12-13T19:21:41;14.85;;;6.22;;
51048;SDS011;37084;55.228;36.450;2022-12-13T19:24:42;15.38;;;6.00;;
51048;SDS011;37084;55.228;36.450;2022-12-13T19:27:44;11.32;;;5.28;;
51048;SDS011;37084;55.228;36.450;2022-12-13T19:30:46;12.55;;;5.60;;
51048;SDS011;37084;55.228;36.450;2022-12-13T19:33:47;13.35;;;6.20;;
51048;SDS011;37084;55.228;36.450;2022-12-13T19:36:49;15.15;;;5.72;;
51048;SDS011;37084;55.228;36.450;2022-12-13T19:39:50;12.30;;;5.32;;